sensor_id;sensor_type;location;lat;lon;timestamp;pressure;altitude;pressure_sealevel;temperature;humidity
41947;BME280;27638;42.184;24.848;2022-12-11T00:01:16;97949.59;;;11.82;100.00
41947;BME280;27638;42.184;24.848;2022-12-11T00:03:41;97949.50;;;11.57;100.00
41947;BME280;27638;42.184;24.848;2022-12-11T00:06:08;97968.56;;;11.28;100.00
41947;BME280;27638;42.184;24.848;2022-12-11T00:08:34;97980.56;;;11.30;100.00
41947;BME280;27638;42.184;24.848;2022-12-11T00:10:59;97951.41;;;11.37;100.00
41947;BME280;27638;42.184;24.848;2022-12-11T00:13:25;97951.56;;;11.42;100.00
41947;BME280;27638;42.184;24.848;2022-12-11T00:15:50;97938.78;;;11.32;100.00
41947;BME280;27638;42.184;24.848;2022-12-11T00:18:15;97931.53;;;11.08;100.00
41947;BME280;27638;42.184;24.848;2022-12-11T00:20:40;97900.72;;;11.20;100.00
41947;BME280;27638;42.184;24.848;2022-12-11T00:23:06;97878.91;;;10.73;100.00
41947;BME280;27638;42.184;24.848;2022-12-11T00:25:31;97883.81;;;10.63;100.00
41947;BME280;27638;42.184;24.848;2022-12-11T00:27:56;97875.00;;;10.82;100.00
41947;BME280;27638;42.184;24.848;2022-12-11T00:30:22;97852.22;;;10.75;100.00
41947;BME280;27638;42.184;24.848;2022-12-11T00:32:47;97820.91;;;10.65;100.00
41947;BME280;27638;42.184;24.848;2022-12-11T00:35:12;97839.69;;;10.31;100.00
41947;BME280;27638;42.184;24.848;2022-12-11T00:37:37;97849.84;;;10.14;100.00
41947;BME280;27638;42.184;24.848;2022-12-11T00:40:03;97864.31;;;9.91;100.00
41947;BME280;27638;42.184;24.848;2022-12-11T00:42:28;97855.78;;;10.22;100.00
41947;BME280;27638;42.184;24.848;2022-12-11T00:44:54;97872.66;;;10.41;100.00
41947;BME280;27638;42.184;24.848;2022-12-11T00:47:20;97875.84;;;10.70;100.00
41947;BME280;27638;42.184;24.848;2022-12-11T00:49:45;97885.31;;;11.04;100.00
41947;BME280;27638;42.184;24.848;2022-12-11T00:52:10;97889.44;;;10.86;100.00
41947;BME280;27638;42.184;24.848;2022-12-11T00:54:36;97889.84;;;10.90;100.00
41947;BME280;27638;42.184;24.848;2022-12-11T00:57:01;97888.97;;;11.03;100.00
41947;BME280;27638;42.184;24.848;2022-12-11T00:59:27;97877.91;;;11.19;100.00
41947;BME280;27638;42.184;24.848;2022-12-11T01:01:52;97840.72;;;11.39;100.00
41947;BME280;27638;42.184;24.848;2022-12-11T01:04:17;97838.28;;;11.69;100.00
41947;BME280;27638;42.184;24.848;2022-12-11T01:06:43;97829.69;;;11.73;100.00
41947;BME280;27638;42.184;24.848;2022-12-11T01:09:08;97836.28;;;11.64;100.00
41947;BME280;27638;42.184;24.848;2022-12-11T01:11:52;97854.72;;;11.52;100.00
41947;BME280;27638;42.184;24.848;2022-12-11T01:14:17;97826.63;;;11.45;100.00
41947;BME280;27638;42.184;24.848;2022-12-11T01:16:42;97832.19;;;10.92;100.00
41947;BME280;27638;42.184;24.848;2022-12-11T01:19:07;97833.28;;;10.78;100.00
41947;BME280;27638;42.184;24.848;2022-12-11T01:21:33;97835.13;;;10.71;100.00
41947;BME280;27638;42.184;24.848;2022-12-11T01:23:58;97838.56;;;10.78;100.00
41947;BME280;27638;42.184;24.848;2022-12-11T01:26:23;97829.66;;;10.66;100.00
41947;BME280;27638;42.184;24.848;2022-12-11T01:28:49;97815.47;;;10.98;100.00
41947;BME280;27638;42.184;24.848;2022-12-11T01:31:15;97808.44;;;11.17;100.00
41947;BME280;27638;42.184;24.848;2022-12-11T01:33:41;97798.91;;;11.41;100.00
41947;BME280;27638;42.184;24.848;2022-12-11T01:36:14;97793.22;;;11.06;100.00
41947;BME280;27638;42.184;24.848;2022-12-11T01:38:39;97798.69;;;11.11;100.00
41947;BME280;27638;42.184;24.848;2022-12-11T01:41:04;97797.16;;;11.28;100.00
41947;BME280;27638;42.184;24.848;2022-12-11T01:43:30;97793.69;;;10.96;100.00
41947;BME280;27638;42.184;24.848;2022-12-11T01:45:55;97783.13;;;11.21;100.00
41947;BME280;27638;42.184;24.848;2022-12-11T01:48:39;97763.63;;;11.15;100.00
41947;BME280;27638;42.184;24.848;2022-12-11T01:51:04;97737.13;;;11.15;100.00
41947;BME280;27638;42.184;24.848;2022-12-11T01:53:31;97735.94;;;11.36;100.00
41947;BME280;27638;42.184;24.848;2022-12-11T01:55:57;97695.84;;;11.58;100.00
41947;BME280;27638;42.184;24.848;2022-12-11T01:58:23;97671.44;;;11.24;100.00
41947;BME280;27638;42.184;24.848;2022-12-11T02:00:50;97687.72;;;11.03;100.00
41947;BME280;27638;42.184;24.848;2022-12-11T02:03:16;97688.63;;;11.15;100.00
41947;BME280;27638;42.184;24.848;2022-12-11T02:05:41;97675.50;;;11.27;100.00
41947;BME280;27638;42.184;24.848;2022-12-11T02:08:07;97662.94;;;11.65;100.00
41947;BME280;27638;42.184;24.848;2022-12-11T02:10:55;97668.88;;;11.86;100.00
41947;BME280;27638;42.184;24.848;2022-12-11T02:13:34;97690.03;;;11.92;100.00
41947;BME280;27638;42.184;24.848;2022-12-11T02:16:15;97681.91;;;11.87;100.00
41947;BME280;27638;42.184;24.848;2022-12-11T02:21:27;97700.41;;;12.12;100.00
41947;BME280;27638;42.184;24.848;2022-12-11T02:28:57;97689.25;;;12.40;100.00
41947;BME280;27638;42.184;24.848;2022-12-11T02:31:25;97699.53;;;12.18;100.00
41947;BME280;27638;42.184;24.848;2022-12-11T02:36:27;97679.72;;;12.02;100.00
41947;BME280;27638;42.184;24.848;2022-12-11T02:38:54;97681.84;;;11.94;100.00
41947;BME280;27638;42.184;24.848;2022-12-11T02:41:21;97668.38;;;11.95;100.00
41947;BME280;27638;42.184;24.848;2022-12-11T02:43:47;97678.88;;;12.20;100.00
41947;BME280;27638;42.184;24.848;2022-12-11T02:46:14;97656.03;;;12.19;100.00
41947;BME280;27638;42.184;24.848;2022-12-11T02:48:41;97649.66;;;12.38;100.00
41947;BME280;27638;42.184;24.848;2022-12-11T02:51:07;97658.00;;;12.42;100.00
41947;BME280;27638;42.184;24.848;2022-12-11T02:53:34;97639.72;;;12.52;100.00
41947;BME280;27638;42.184;24.848;2022-12-11T02:56:03;97648.97;;;12.61;100.00
41947;BME280;27638;42.184;24.848;2022-12-11T02:58:32;97653.81;;;12.53;100.00
41947;BME280;27638;42.184;24.848;2022-12-11T03:00:58;97672.38;;;12.53;100.00
41947;BME280;27638;42.184;24.848;2022-12-11T03:03:23;97663.75;;;12.39;100.00
41947;BME280;27638;42.184;24.848;2022-12-11T03:05:49;97656.19;;;12.24;100.00
41947;BME280;27638;42.184;24.848;2022-12-11T03:08:14;97650.25;;;12.40;100.00
41947;BME280;27638;42.184;24.848;2022-12-11T03:10:43;97656.91;;;12.50;100.00
41947;BME280;27638;42.184;24.848;2022-12-11T03:13:09;97673.34;;;12.40;100.00
41947;BME280;27638;42.184;24.848;2022-12-11T03:21:13;97654.91;;;13.17;100.00
41947;BME280;27638;42.184;24.848;2022-12-11T03:26:05;97670.56;;;13.60;100.00
41947;BME280;27638;42.184;24.848;2022-12-11T03:28:38;97680.25;;;13.42;100.00
41947;BME280;27638;42.184;24.848;2022-12-11T03:31:08;97686.13;;;13.33;100.00
41947;BME280;27638;42.184;24.848;2022-12-11T03:33:36;97695.72;;;12.92;100.00
41947;BME280;27638;42.184;24.848;2022-12-11T03:36:10;97699.19;;;12.93;100.00
41947;BME280;27638;42.184;24.848;2022-12-11T03:38:38;97706.34;;;13.22;100.00
41947;BME280;27638;42.184;24.848;2022-12-11T03:41:05;97705.31;;;13.35;100.00
41947;BME280;27638;42.184;24.848;2022-12-11T03:43:32;97700.81;;;13.47;100.00
41947;BME280;27638;42.184;24.848;2022-12-11T03:45:58;97712.59;;;13.39;100.00
41947;BME280;27638;42.184;24.848;2022-12-11T03:48:28;97688.03;;;13.56;100.00
41947;BME280;27638;42.184;24.848;2022-12-11T03:50:55;97680.75;;;13.63;100.00
41947;BME280;27638;42.184;24.848;2022-12-11T03:53:21;97686.00;;;13.28;100.00
41947;BME280;27638;42.184;24.848;2022-12-11T03:55:47;97684.50;;;13.20;100.00
41947;BME280;27638;42.184;24.848;2022-12-11T03:58:13;97664.41;;;13.36;100.00
41947;BME280;27638;42.184;24.848;2022-12-11T04:00:39;97672.03;;;13.44;100.00
41947;BME280;27638;42.184;24.848;2022-12-11T04:03:04;97654.72;;;13.65;100.00
41947;BME280;27638;42.184;24.848;2022-12-11T04:05:42;97666.75;;;13.79;100.00
41947;BME280;27638;42.184;24.848;2022-12-11T04:08:08;97673.28;;;14.12;100.00
41947;BME280;27638;42.184;24.848;2022-12-11T04:10:33;97675.94;;;14.12;100.00
41947;BME280;27638;42.184;24.848;2022-12-11T04:12:59;97677.22;;;14.09;100.00
41947;BME280;27638;42.184;24.848;2022-12-11T04:15:24;97679.66;;;14.11;100.00
41947;BME280;27638;42.184;24.848;2022-12-11T04:17:49;97684.28;;;14.03;100.00
41947;BME280;27638;42.184;24.848;2022-12-11T04:20:33;97684.66;;;13.84;100.00
41947;BME280;27638;42.184;24.848;2022-12-11T04:23:17;97701.22;;;13.62;100.00
41947;BME280;27638;42.184;24.848;2022-12-11T04:26:03;97719.25;;;13.72;100.00
41947;BME280;27638;42.184;24.848;2022-12-11T04:28:28;97704.31;;;13.83;100.00
41947;BME280;27638;42.184;24.848;2022-12-11T04:30:53;97705.81;;;13.79;100.00
41947;BME280;27638;42.184;24.848;2022-12-11T04:33:18;97689.03;;;13.90;100.00
41947;BME280;27638;42.184;24.848;2022-12-11T04:35:44;97688.69;;;13.98;100.00
41947;BME280;27638;42.184;24.848;2022-12-11T04:38:09;97701.31;;;13.91;100.00
41947;BME280;27638;42.184;24.848;2022-12-11T04:40:34;97708.59;;;13.95;100.00
41947;BME280;27638;42.184;24.848;2022-12-11T04:43:00;97715.66;;;13.78;100.00
41947;BME280;27638;42.184;24.848;2022-12-11T04:45:25;97724.91;;;13.64;100.00
41947;BME280;27638;42.184;24.848;2022-12-11T04:47:50;97734.41;;;13.83;100.00
41947;BME280;27638;42.184;24.848;2022-12-11T04:50:16;97725.72;;;13.76;100.00
41947;BME280;27638;42.184;24.848;2022-12-11T04:52:41;97726.28;;;13.90;100.00
41947;BME280;27638;42.184;24.848;2022-12-11T04:55:07;97725.84;;;13.81;100.00
41947;BME280;27638;42.184;24.848;2022-12-11T04:57:33;97718.66;;;13.58;100.00
41947;BME280;27638;42.184;24.848;2022-12-11T04:59:58;97719.78;;;13.51;100.00
41947;BME280;27638;42.184;24.848;2022-12-11T05:02:24;97739.53;;;13.43;100.00
41947;BME280;27638;42.184;24.848;2022-12-11T05:04:50;97751.09;;;13.49;100.00
41947;BME280;27638;42.184;24.848;2022-12-11T05:07:15;97747.16;;;13.39;100.00
41947;BME280;27638;42.184;24.848;2022-12-11T05:09:41;97746.56;;;13.37;100.00
41947;BME280;27638;42.184;24.848;2022-12-11T05:12:06;97756.47;;;13.19;100.00
41947;BME280;27638;42.184;24.848;2022-12-11T05:14:31;97761.91;;;13.24;100.00
41947;BME280;27638;42.184;24.848;2022-12-11T05:16:59;97755.13;;;13.39;100.00
41947;BME280;27638;42.184;24.848;2022-12-11T05:19:24;97752.84;;;13.13;100.00
41947;BME280;27638;42.184;24.848;2022-12-11T05:21:50;97749.31;;;13.19;100.00
41947;BME280;27638;42.184;24.848;2022-12-11T05:24:15;97737.88;;;13.19;100.00
41947;BME280;27638;42.184;24.848;2022-12-11T05:26:40;97737.19;;;13.23;100.00
41947;BME280;27638;42.184;24.848;2022-12-11T05:29:05;97732.22;;;13.27;100.00
41947;BME280;27638;42.184;24.848;2022-12-11T05:31:31;97743.22;;;13.30;100.00
41947;BME280;27638;42.184;24.848;2022-12-11T05:33:56;97755.25;;;13.03;100.00
41947;BME280;27638;42.184;24.848;2022-12-11T05:36:29;97761.94;;;13.05;100.00
41947;BME280;27638;42.184;24.848;2022-12-11T05:38:55;97770.16;;;13.04;100.00
41947;BME280;27638;42.184;24.848;2022-12-11T05:41:22;97767.81;;;12.96;100.00
41947;BME280;27638;42.184;24.848;2022-12-11T05:43:47;97770.25;;;12.97;100.00
41947;BME280;27638;42.184;24.848;2022-12-11T05:46:20;97766.31;;;13.00;100.00
41947;BME280;27638;42.184;24.848;2022-12-11T05:48:47;97782.38;;;13.05;100.00
41947;BME280;27638;42.184;24.848;2022-12-11T05:51:12;97777.94;;;12.87;100.00
41947;BME280;27638;42.184;24.848;2022-12-11T05:53:39;97787.03;;;12.79;100.00
41947;BME280;27638;42.184;24.848;2022-12-11T05:56:09;97795.75;;;12.50;100.00
41947;BME280;27638;42.184;24.848;2022-12-11T05:58:35;97803.25;;;12.71;100.00
41947;BME280;27638;42.184;24.848;2022-12-11T06:01:00;97804.13;;;12.84;100.00
41947;BME280;27638;42.184;24.848;2022-12-11T06:03:26;97810.69;;;12.81;100.00
41947;BME280;27638;42.184;24.848;2022-12-11T06:05:51;97814.59;;;12.97;100.00
41947;BME280;27638;42.184;24.848;2022-12-11T06:08:17;97799.16;;;13.05;100.00
41947;BME280;27638;42.184;24.848;2022-12-11T06:10:45;97805.13;;;13.01;100.00
41947;BME280;27638;42.184;24.848;2022-12-11T06:13:11;97805.63;;;13.09;100.00
41947;BME280;27638;42.184;24.848;2022-12-11T06:15:36;97819.94;;;13.08;100.00
41947;BME280;27638;42.184;24.848;2022-12-11T06:18:01;97822.25;;;13.05;100.00
41947;BME280;27638;42.184;24.848;2022-12-11T06:20:29;97836.84;;;13.14;100.00
41947;BME280;27638;42.184;24.848;2022-12-11T06:22:55;97830.94;;;13.12;100.00
41947;BME280;27638;42.184;24.848;2022-12-11T06:25:20;97847.06;;;13.17;100.00
41947;BME280;27638;42.184;24.848;2022-12-11T06:27:45;97847.59;;;12.71;100.00
41947;BME280;27638;42.184;24.848;2022-12-11T06:30:11;97854.22;;;12.62;100.00
41947;BME280;27638;42.184;24.848;2022-12-11T06:32:36;97856.97;;;12.55;100.00
41947;BME280;27638;42.184;24.848;2022-12-11T06:35:02;97864.06;;;12.36;100.00
41947;BME280;27638;42.184;24.848;2022-12-11T06:37:27;97853.72;;;12.28;100.00
41947;BME280;27638;42.184;24.848;2022-12-11T06:39:52;97848.56;;;12.33;100.00
41947;BME280;27638;42.184;24.848;2022-12-11T06:42:17;97852.97;;;12.64;100.00
41947;BME280;27638;42.184;24.848;2022-12-11T06:44:43;97838.81;;;12.89;100.00
41947;BME280;27638;42.184;24.848;2022-12-11T06:47:08;97843.63;;;13.10;100.00
41947;BME280;27638;42.184;24.848;2022-12-11T06:49:33;97848.72;;;13.11;100.00
41947;BME280;27638;42.184;24.848;2022-12-11T06:51:58;97852.81;;;12.96;100.00
41947;BME280;27638;42.184;24.848;2022-12-11T06:54:24;97852.09;;;12.89;100.00
41947;BME280;27638;42.184;24.848;2022-12-11T06:56:50;97859.81;;;13.08;100.00
41947;BME280;27638;42.184;24.848;2022-12-11T06:59:15;97861.56;;;13.33;100.00
41947;BME280;27638;42.184;24.848;2022-12-11T07:01:40;97857.47;;;13.49;100.00
41947;BME280;27638;42.184;24.848;2022-12-11T07:04:05;97863.41;;;13.62;100.00
41947;BME280;27638;42.184;24.848;2022-12-11T07:06:31;97866.69;;;13.76;100.00
41947;BME280;27638;42.184;24.848;2022-12-11T07:08:56;97874.69;;;13.88;100.00
41947;BME280;27638;42.184;24.848;2022-12-11T07:11:21;97871.47;;;13.97;100.00
41947;BME280;27638;42.184;24.848;2022-12-11T07:13:47;97877.72;;;14.03;100.00
41947;BME280;27638;42.184;24.848;2022-12-11T07:16:13;97881.09;;;14.10;100.00
41947;BME280;27638;42.184;24.848;2022-12-11T07:18:39;97841.41;;;14.09;100.00
41947;BME280;27638;42.184;24.848;2022-12-11T07:21:06;97876.03;;;14.32;100.00
41947;BME280;27638;42.184;24.848;2022-12-11T07:23:32;97873.00;;;14.40;100.00
41947;BME280;27638;42.184;24.848;2022-12-11T07:25:58;97876.16;;;14.49;100.00
41947;BME280;27638;42.184;24.848;2022-12-11T07:28:23;97875.94;;;14.50;100.00
41947;BME280;27638;42.184;24.848;2022-12-11T07:30:48;97880.22;;;14.51;100.00
41947;BME280;27638;42.184;24.848;2022-12-11T07:33:14;97883.69;;;14.52;100.00
41947;BME280;27638;42.184;24.848;2022-12-11T07:35:40;97875.25;;;14.43;100.00
41947;BME280;27638;42.184;24.848;2022-12-11T07:38:05;97870.13;;;14.53;100.00
41947;BME280;27638;42.184;24.848;2022-12-11T07:40:31;97867.25;;;14.43;100.00
41947;BME280;27638;42.184;24.848;2022-12-11T07:42:57;97866.66;;;14.53;100.00
41947;BME280;27638;42.184;24.848;2022-12-11T07:45:22;97885.44;;;14.58;100.00
41947;BME280;27638;42.184;24.848;2022-12-11T07:47:47;97891.00;;;14.68;100.00
41947;BME280;27638;42.184;24.848;2022-12-11T07:50:13;97894.47;;;14.68;100.00
41947;BME280;27638;42.184;24.848;2022-12-11T07:52:38;97896.38;;;14.26;100.00
41947;BME280;27638;42.184;24.848;2022-12-11T07:55:03;97884.41;;;13.82;100.00
41947;BME280;27638;42.184;24.848;2022-12-11T07:57:29;97880.38;;;13.91;100.00
41947;BME280;27638;42.184;24.848;2022-12-11T07:59:54;97890.69;;;13.99;100.00
41947;BME280;27638;42.184;24.848;2022-12-11T08:02:20;97878.78;;;14.25;100.00
41947;BME280;27638;42.184;24.848;2022-12-11T08:04:46;97891.06;;;14.26;100.00
41947;BME280;27638;42.184;24.848;2022-12-11T08:07:11;97899.41;;;14.42;100.00
41947;BME280;27638;42.184;24.848;2022-12-11T08:09:36;97898.81;;;14.39;100.00
41947;BME280;27638;42.184;24.848;2022-12-11T08:12:02;97896.66;;;14.48;100.00
41947;BME280;27638;42.184;24.848;2022-12-11T08:14:27;97910.81;;;14.60;100.00
41947;BME280;27638;42.184;24.848;2022-12-11T08:16:52;97914.28;;;14.61;100.00
41947;BME280;27638;42.184;24.848;2022-12-11T08:19:18;97904.41;;;14.85;100.00
41947;BME280;27638;42.184;24.848;2022-12-11T08:21:43;97905.34;;;14.90;100.00
41947;BME280;27638;42.184;24.848;2022-12-11T08:24:09;97895.03;;;14.94;100.00
41947;BME280;27638;42.184;24.848;2022-12-11T08:26:34;97875.25;;;15.18;100.00
41947;BME280;27638;42.184;24.848;2022-12-11T08:29:00;97868.63;;;15.21;100.00
41947;BME280;27638;42.184;24.848;2022-12-11T08:31:26;97875.53;;;15.05;100.00
41947;BME280;27638;42.184;24.848;2022-12-11T08:33:52;97872.25;;;15.15;100.00
41947;BME280;27638;42.184;24.848;2022-12-11T08:36:19;97872.81;;;15.45;100.00
41947;BME280;27638;42.184;24.848;2022-12-11T08:38:45;97869.06;;;15.29;100.00
41947;BME280;27638;42.184;24.848;2022-12-11T08:41:23;97867.53;;;15.05;100.00
41947;BME280;27638;42.184;24.848;2022-12-11T08:43:49;97873.78;;;15.39;100.00
41947;BME280;27638;42.184;24.848;2022-12-11T08:46:18;97871.88;;;15.51;100.00
41947;BME280;27638;42.184;24.848;2022-12-11T08:48:44;97877.94;;;15.47;100.00
41947;BME280;27638;42.184;24.848;2022-12-11T08:51:11;97878.44;;;15.32;100.00
41947;BME280;27638;42.184;24.848;2022-12-11T08:53:36;97878.88;;;15.41;100.00
41947;BME280;27638;42.184;24.848;2022-12-11T08:56:03;97881.75;;;15.62;100.00
41947;BME280;27638;42.184;24.848;2022-12-11T08:58:29;97896.69;;;15.52;100.00
41947;BME280;27638;42.184;24.848;2022-12-11T09:00:55;97902.78;;;15.36;100.00
41947;BME280;27638;42.184;24.848;2022-12-11T09:03:20;97916.59;;;15.32;100.00
41947;BME280;27638;42.184;24.848;2022-12-11T09:05:45;97923.25;;;15.18;100.00
41947;BME280;27638;42.184;24.848;2022-12-11T09:08:11;97911.34;;;15.38;100.00
41947;BME280;27638;42.184;24.848;2022-12-11T09:10:36;97905.16;;;15.49;100.00
41947;BME280;27638;42.184;24.848;2022-12-11T09:13:01;97902.59;;;15.66;100.00
41947;BME280;27638;42.184;24.848;2022-12-11T09:15:26;97902.63;;;15.82;100.00
41947;BME280;27638;42.184;24.848;2022-12-11T09:17:52;97916.28;;;15.57;100.00
41947;BME280;27638;42.184;24.848;2022-12-11T09:20:17;97900.28;;;15.69;100.00
41947;BME280;27638;42.184;24.848;2022-12-11T09:22:42;97896.75;;;15.97;100.00
41947;BME280;27638;42.184;24.848;2022-12-11T09:25:08;97889.97;;;16.06;100.00
41947;BME280;27638;42.184;24.848;2022-12-11T09:27:33;97892.63;;;16.23;100.00
41947;BME280;27638;42.184;24.848;2022-12-11T09:29:59;97878.13;;;16.36;100.00
41947;BME280;27638;42.184;24.848;2022-12-11T09:32:24;97875.75;;;16.56;100.00
41947;BME280;27638;42.184;24.848;2022-12-11T09:34:50;97866.97;;;16.72;100.00
41947;BME280;27638;42.184;24.848;2022-12-11T09:37:15;97863.28;;;16.61;100.00
41947;BME280;27638;42.184;24.848;2022-12-11T09:39:41;97864.84;;;16.41;100.00
41947;BME280;27638;42.184;24.848;2022-12-11T09:44:42;97859.88;;;15.94;100.00
41947;BME280;27638;42.184;24.848;2022-12-11T09:47:15;97850.06;;;15.83;100.00
41947;BME280;27638;42.184;24.848;2022-12-11T09:49:41;97843.94;;;15.99;100.00
41947;BME280;27638;42.184;24.848;2022-12-11T09:54:36;97832.91;;;16.29;100.00
41947;BME280;27638;42.184;24.848;2022-12-11T09:57:09;97831.13;;;16.18;100.00
41947;BME280;27638;42.184;24.848;2022-12-11T09:59:49;97821.69;;;16.10;100.00
41947;BME280;27638;42.184;24.848;2022-12-11T10:02:26;97816.63;;;16.31;100.00
41947;BME280;27638;42.184;24.848;2022-12-11T10:05:03;97820.13;;;16.31;100.00
41947;BME280;27638;42.184;24.848;2022-12-11T10:10:02;97818.94;;;16.44;100.00
41947;BME280;27638;42.184;24.848;2022-12-11T10:12:34;97815.44;;;16.60;100.00
41947;BME280;27638;42.184;24.848;2022-12-11T10:17:48;97808.47;;;16.76;100.00
41947;BME280;27638;42.184;24.848;2022-12-11T10:22:49;97801.25;;;16.98;97.19
41947;BME280;27638;42.184;24.848;2022-12-11T10:25:20;97793.34;;;17.08;94.16
41947;BME280;27638;42.184;24.848;2022-12-11T10:27:46;97786.88;;;17.31;94.58
41947;BME280;27638;42.184;24.848;2022-12-11T10:33:01;97776.53;;;17.40;95.50
41947;BME280;27638;42.184;24.848;2022-12-11T10:37:48;97768.06;;;17.75;92.28
41947;BME280;27638;42.184;24.848;2022-12-11T10:40:13;97764.16;;;17.61;84.49
41947;BME280;27638;42.184;24.848;2022-12-11T10:42:38;97750.91;;;17.71;88.67
41947;BME280;27638;42.184;24.848;2022-12-11T10:45:04;97749.09;;;17.81;89.89
41947;BME280;27638;42.184;24.848;2022-12-11T10:47:29;97747.75;;;17.79;91.88
41947;BME280;27638;42.184;24.848;2022-12-11T10:50:00;97752.53;;;17.72;92.04
41947;BME280;27638;42.184;24.848;2022-12-11T10:52:33;97753.31;;;17.72;93.80
41947;BME280;27638;42.184;24.848;2022-12-11T10:55:01;97761.34;;;17.72;94.63
41947;BME280;27638;42.184;24.848;2022-12-11T10:57:27;97752.25;;;17.73;93.72
41947;BME280;27638;42.184;24.848;2022-12-11T10:59:53;97754.81;;;17.63;94.14
41947;BME280;27638;42.184;24.848;2022-12-11T11:02:35;97752.78;;;17.70;92.50
41947;BME280;27638;42.184;24.848;2022-12-11T11:05:10;97756.38;;;17.86;90.82
41947;BME280;27638;42.184;24.848;2022-12-11T11:07:36;97762.97;;;17.73;86.46
41947;BME280;27638;42.184;24.848;2022-12-11T11:12:38;97749.59;;;18.15;84.39
41947;BME280;27638;42.184;24.848;2022-12-11T11:15:06;97749.66;;;18.26;86.63
41947;BME280;27638;42.184;24.848;2022-12-11T11:17:32;97751.22;;;18.16;88.61
41947;BME280;27638;42.184;24.848;2022-12-11T11:20:05;97753.06;;;18.11;89.55
41947;BME280;27638;42.184;24.848;2022-12-11T11:22:37;97747.94;;;18.09;90.38
41947;BME280;27638;42.184;24.848;2022-12-11T11:25:04;97759.19;;;18.06;90.55
41947;BME280;27638;42.184;24.848;2022-12-11T11:29:56;97738.09;;;18.20;89.57
41947;BME280;27638;42.184;24.848;2022-12-11T11:32:29;97736.69;;;18.07;87.46
41947;BME280;27638;42.184;24.848;2022-12-11T11:37:37;97732.63;;;18.00;84.70
41947;BME280;27638;42.184;24.848;2022-12-11T11:42:37;97733.03;;;17.81;88.19
41947;BME280;27638;42.184;24.848;2022-12-11T11:45:05;97728.41;;;18.09;86.06
41947;BME280;27638;42.184;24.848;2022-12-11T11:47:35;97731.41;;;18.23;86.55
41947;BME280;27638;42.184;24.848;2022-12-11T11:52:38;97732.75;;;18.20;87.26
41947;BME280;27638;42.184;24.848;2022-12-11T11:55:07;97729.28;;;18.25;86.90
41947;BME280;27638;42.184;24.848;2022-12-11T11:57:41;97724.31;;;18.54;88.15
41947;BME280;27638;42.184;24.848;2022-12-11T12:00:18;97724.28;;;18.43;87.76
41947;BME280;27638;42.184;24.848;2022-12-11T12:02:44;97724.72;;;18.25;88.77
41947;BME280;27638;42.184;24.848;2022-12-11T12:05:13;97722.94;;;18.46;86.92
41947;BME280;27638;42.184;24.848;2022-12-11T12:10:16;97715.59;;;18.21;89.42
41947;BME280;27638;42.184;24.848;2022-12-11T12:12:48;97716.88;;;18.08;89.93
41947;BME280;27638;42.184;24.848;2022-12-11T12:15:27;97710.22;;;18.16;92.03
41947;BME280;27638;42.184;24.848;2022-12-11T12:17:55;97706.28;;;18.34;89.37
41947;BME280;27638;42.184;24.848;2022-12-11T12:23:15;97709.19;;;18.22;91.25
41947;BME280;27638;42.184;24.848;2022-12-11T12:43:47;97695.53;;;18.24;90.61
41947;BME280;27638;42.184;24.848;2022-12-11T12:48:40;97699.25;;;18.75;87.63
41947;BME280;27638;42.184;24.848;2022-12-11T12:51:05;97702.69;;;18.70;88.65
41947;BME280;27638;42.184;24.848;2022-12-11T12:53:32;97700.72;;;18.50;90.42
41947;BME280;27638;42.184;24.848;2022-12-11T12:55:59;97686.78;;;18.48;90.23
41947;BME280;27638;42.184;24.848;2022-12-11T13:00:54;97683.81;;;18.40;92.04
41947;BME280;27638;42.184;24.848;2022-12-11T13:03:31;97686.16;;;18.26;93.24
41947;BME280;27638;42.184;24.848;2022-12-11T13:06:02;97684.78;;;18.18;93.51
41947;BME280;27638;42.184;24.848;2022-12-11T13:08:28;97682.91;;;18.14;92.74
41947;BME280;27638;42.184;24.848;2022-12-11T13:11:04;97684.50;;;18.15;93.13
41947;BME280;27638;42.184;24.848;2022-12-11T13:16:04;97692.44;;;17.95;94.18
41947;BME280;27638;42.184;24.848;2022-12-11T13:18:31;97687.75;;;17.75;95.90
41947;BME280;27638;42.184;24.848;2022-12-11T13:20:57;97692.06;;;17.76;97.15
41947;BME280;27638;42.184;24.848;2022-12-11T13:23:27;97694.78;;;17.86;96.98
41947;BME280;27638;42.184;24.848;2022-12-11T13:25:54;97682.97;;;17.77;97.58
41947;BME280;27638;42.184;24.848;2022-12-11T13:28:24;97686.44;;;17.77;98.61
41947;BME280;27638;42.184;24.848;2022-12-11T13:31:00;97685.38;;;17.78;98.80
41947;BME280;27638;42.184;24.848;2022-12-11T13:33:26;97692.41;;;17.58;99.84
41947;BME280;27638;42.184;24.848;2022-12-11T13:36:22;97691.41;;;17.32;100.00
41947;BME280;27638;42.184;24.848;2022-12-11T13:38:53;97696.53;;;17.38;100.00
41947;BME280;27638;42.184;24.848;2022-12-11T13:41:19;97702.78;;;17.17;100.00
41947;BME280;27638;42.184;24.848;2022-12-11T13:43:45;97698.09;;;17.34;100.00
41947;BME280;27638;42.184;24.848;2022-12-11T13:46:12;97702.88;;;17.27;100.00
41947;BME280;27638;42.184;24.848;2022-12-11T13:51:06;97708.81;;;17.34;96.67
41947;BME280;27638;42.184;24.848;2022-12-11T13:53:31;97708.69;;;17.51;93.87
41947;BME280;27638;42.184;24.848;2022-12-11T13:58:22;97705.94;;;17.73;92.79
41947;BME280;27638;42.184;24.848;2022-12-11T14:01:05;97711.84;;;17.75;92.76
41947;BME280;27638;42.184;24.848;2022-12-11T14:03:32;97719.38;;;17.78;91.63
41947;BME280;27638;42.184;24.848;2022-12-11T14:05:58;97721.03;;;17.57;89.42
41947;BME280;27638;42.184;24.848;2022-12-11T14:08:26;97725.25;;;17.48;83.68